Aeroporto :
LOGIN :

Iscrizione | Disclaimer

   EN    FR    IT 

 










Sommario :    VFR   VFR Marginale   IFR   IFR Intensivo   IFR Molto Intensivo
Visibilità : 
Base nubi : 
>= 8 km
>= 3000ft
5 / 8 km
1000 / 3000 ft
1500m / 5 km
500 / 1000 ft
800 / 1500m
200 / 500 ft
< 800m
< 200 ft
Simboli :   Temporali  Nebbia  Neve Forte  Precipitazioni Forti  Vento > 20 kt
SIGMETs :   Varie  Temporali  Ghiacco  Turbolenza  Onda orograficha  Ceneri Vulcaniche






- Altitudine del aeroporto : 256 ft
- Codice IATA : KUN


EYKA - Kaunas

ULTIMO METAR :
  • 171520Z 25007KT 9999 SCT042 07/01 Q1010 R08/290095

METARs OBSOLETI :
  • 171450Z 27011KT 9999 BKN039 08/01 Q1009 R08/290095
  • 171420Z 27014KT 210V340 9999 FEW025CB SCT032 BKN042 08/01 Q1009 R08/290095
  • 171350Z 24017KT 9999 VCSH SCT049CB BKN057 09/03 Q1009 R08/290095
  • 171320Z 24014KT 9999 VCSH SCT047CB BKN055 10/03 Q1008 R08/290095
  • 171250Z 24011KT 200V260 CAVOK 09/04 Q1007 R08/290095

TAF TAF EYKA
Valido dal 17 a 12 ore il 18 a 12 ore UTC


171100Z 1712/1812 26014G24KT 9000 SCT025
TEMPO 1712/1716 5000 SHRA BKN015CB
BECMG 1810/1812 BKN015



MetMap, La meteo Aeronautica in un colpo d'occhio ! - Copyright ORBIFLY Dicembre 2007 - Disclaimer

ORBIFLY MET'MAP TEAM :

Programmazione e sviluppo : Alexandra Zaïnal
Concezione : Baudouin d'Aumeries
Aiuto per la programmazione : Marc-Olivier Méhu
Supporto tecnico e logistico : Manuel Goepfert
Aiuto per la traduzione : Arnaldo La Scala

Contatto : metmap@orbifly.com




FONTI E CREDITI :

   NOAA